createdAt,value
2023-04-15T00:01:27.470Z,95468.66
2023-04-15T00:04:01.228Z,95414.16
2023-04-15T00:06:33.667Z,95466.00
2023-04-15T00:09:02.887Z,95466.78
2023-04-15T00:11:31.337Z,95465.25
2023-04-15T00:13:59.609Z,95464.19
2023-04-15T00:16:28.755Z,95463.91
2023-04-15T00:18:57.124Z,95444.41
2023-04-15T00:21:35.713Z,95367.13
2023-04-15T00:24:03.952Z,95448.88
2023-04-15T00:26:37.858Z,95419.44
2023-04-15T00:29:10.238Z,95435.19
2023-04-15T00:31:38.807Z,95465.19
2023-04-15T00:34:12.633Z,95469.41
2023-04-15T00:36:47.927Z,95471.22
2023-04-15T00:39:16.758Z,95458.91
2023-04-15T00:41:49.803Z,95460.47
2023-04-15T00:44:20.821Z,95456.53
2023-04-15T00:46:50.751Z,95459.66
2023-04-15T00:49:19.388Z,95435.75
2023-04-15T00:51:49.479Z,95457.31
2023-04-15T00:54:20.921Z,95459.16
2023-04-15T00:56:50.239Z,95461.03
2023-04-15T00:59:20.078Z,95454.97
2023-04-15T01:01:49.987Z,95461.03
2023-04-15T01:04:21.389Z,95466.78
2023-04-15T01:06:51.744Z,95456.78
2023-04-15T01:09:20.838Z,95454.19
2023-04-15T01:11:50.721Z,95460.75
2023-04-15T01:14:19.075Z,95458.63
2023-04-15T01:16:47.730Z,95441.50
2023-04-15T01:19:18.922Z,95460.47
2023-04-15T01:21:48.405Z,95455.44
2023-04-15T01:24:21.256Z,95463.81
2023-04-15T01:26:51.303Z,95464.38
2023-04-15T01:29:21.042Z,95441.44
2023-04-15T01:31:54.166Z,95416.22
2023-04-15T01:34:22.761Z,95447.81
2023-04-15T01:36:51.499Z,95461.47
2023-04-15T01:39:25.459Z,95456.53
2023-04-15T01:41:59.427Z,95458.91
2023-04-15T01:44:29.633Z,95461.94
2023-04-15T01:47:01.011Z,95461.34
2023-04-15T01:49:33.285Z,95461.66
2023-04-15T01:52:02.473Z,95454.56
2023-04-15T01:54:30.846Z,95456.66
2023-04-15T01:57:07.073Z,95460.88
2023-04-15T01:59:35.531Z,95444.38
2023-04-15T02:02:04.956Z,95452.84
2023-04-15T02:04:34.775Z,95447.25
2023-04-15T02:07:11.654Z,95447.28
2023-04-15T02:09:39.868Z,95441.72
2023-04-15T02:12:11.954Z,95451.34
2023-04-15T02:14:40.002Z,95453.19
2023-04-15T02:17:11.502Z,95397.47
2023-04-15T02:19:39.709Z,95451.34
2023-04-15T02:22:11.858Z,95416.38
2023-04-15T02:24:42.652Z,95426.66
2023-04-15T02:27:12.816Z,95414.09
2023-04-15T02:29:43.370Z,95456.41
2023-04-15T02:32:13.011Z,95449.66
2023-04-15T02:34:43.253Z,95451.50
2023-04-15T02:37:12.865Z,95488.34
2023-04-15T02:39:44.323Z,95434.16
2023-04-15T02:42:17.053Z,95448.31
2023-04-15T02:44:51.123Z,95434.88
2023-04-15T02:47:25.891Z,95391.31
2023-04-15T02:49:54.172Z,95421.19
2023-04-15T02:52:23.156Z,95440.75
2023-04-15T02:55:00.602Z,95351.94
2023-04-15T02:57:31.344Z,95397.16
2023-04-15T03:00:02.662Z,95441.91
2023-04-15T03:02:35.660Z,95444.78
2023-04-15T03:05:08.730Z,95436.97
2023-04-15T03:07:36.694Z,95449.75
2023-04-15T03:10:13.322Z,95450.53
2023-04-15T03:12:46.349Z,95443.28
2023-04-15T03:15:16.967Z,95451.44
2023-04-15T03:17:51.485Z,95441.78
2023-04-15T03:20:20.045Z,95447.00
2023-04-15T03:22:48.089Z,95437.41
2023-04-15T03:25:27.564Z,95460.81
2023-04-15T03:27:57.257Z,95459.28
2023-04-15T03:30:25.635Z,95449.50
2023-04-15T03:32:53.890Z,95440.41
2023-04-15T03:35:22.277Z,95453.56
2023-04-15T03:37:54.864Z,95453.03
2023-04-15T03:40:25.009Z,95446.66
2023-04-15T03:42:54.701Z,95414.50
2023-04-15T03:45:29.096Z,95444.31
2023-04-15T03:48:03.719Z,95438.84
2023-04-15T03:50:47.910Z,95423.38
2023-04-15T03:53:18.520Z,95429.19
2023-04-15T03:55:47.295Z,95444.50
2023-04-15T03:58:16.416Z,95439.66
2023-04-15T04:00:48.046Z,95440.25
2023-04-15T04:03:16.660Z,95445.94
2023-04-15T04:05:45.205Z,95444.06
2023-04-15T04:08:18.143Z,95322.75
2023-04-15T04:10:47.139Z,95413.09
2023-04-15T04:13:18.654Z,95445.97
2023-04-15T04:15:50.312Z,95439.44
2023-04-15T04:18:20.144Z,95453.19
2023-04-15T04:20:48.247Z,95454.91
2023-04-15T04:23:18.295Z,95458.13
2023-04-15T04:25:46.752Z,95459.03
2023-04-15T04:28:19.539Z,95458.13
2023-04-15T04:30:59.181Z,95456.16
2023-04-15T04:33:30.358Z,95443.47
2023-04-15T04:35:58.466Z,95453.81
2023-04-15T04:38:28.196Z,95465.44
2023-04-15T04:40:58.643Z,95465.50
2023-04-15T04:43:26.798Z,95462.53
2023-04-15T04:45:59.242Z,95447.28
2023-04-15T04:48:27.141Z,95445.53
2023-04-15T04:50:57.092Z,95462.50
2023-04-15T04:53:28.030Z,95467.84
2023-04-15T04:55:55.909Z,95468.34
2023-04-15T04:58:23.987Z,95468.06
2023-04-15T05:00:54.160Z,95467.94
2023-04-15T05:03:25.931Z,95448.19
2023-04-15T05:05:55.544Z,95478.47
2023-04-15T05:08:26.463Z,95473.00
2023-04-15T05:11:02.149Z,95478.31
2023-04-15T05:13:30.259Z,95461.16
2023-04-15T05:15:59.332Z,95443.56
2023-04-15T05:18:29.167Z,95471.16
2023-04-15T05:20:58.711Z,95474.13
2023-04-15T05:23:26.929Z,95472.66
2023-04-15T05:25:58.257Z,95475.28
2023-04-15T05:28:26.716Z,95477.41
2023-04-15T05:30:57.604Z,95478.81
2023-04-15T05:33:27.566Z,95474.66
2023-04-15T05:35:59.322Z,95476.56
2023-04-15T05:38:37.559Z,95459.78
2023-04-15T05:41:06.058Z,95482.09
2023-04-15T05:43:34.643Z,95473.97
2023-04-15T05:46:02.910Z,95477.44
2023-04-15T05:48:30.964Z,95477.63
2023-04-15T05:51:03.048Z,95482.31
2023-04-15T05:53:32.162Z,95482.81
2023-04-15T05:56:03.036Z,95483.81
2023-04-15T05:58:33.467Z,95486.56
2023-04-15T06:01:03.782Z,95491.06
2023-04-15T06:03:31.991Z,95438.84
2023-04-15T06:06:03.955Z,95490.59
2023-04-15T06:08:34.116Z,95465.47
2023-04-15T06:11:08.163Z,95476.56
2023-04-15T06:13:36.594Z,95480.59
2023-04-15T06:16:09.133Z,95477.16
2023-04-15T06:18:40.641Z,95476.72
2023-04-15T06:21:13.646Z,95475.75
2023-04-15T06:23:44.193Z,95461.78
2023-04-15T06:26:14.366Z,95485.22
2023-04-15T06:28:43.117Z,95387.84
2023-04-15T06:31:11.448Z,95473.66
2023-04-15T06:33:39.846Z,95481.97
2023-04-15T06:36:12.994Z,95483.56
2023-04-15T06:38:41.385Z,95452.31
2023-04-15T06:41:09.481Z,95481.13
2023-04-15T06:43:40.344Z,95479.50
2023-04-15T06:46:08.206Z,95474.19
2023-04-15T06:48:36.017Z,95480.41
2023-04-15T06:51:06.994Z,95452.28
2023-04-15T06:53:41.188Z,95479.56
2023-04-15T06:56:10.005Z,95471.25
2023-04-15T06:58:38.050Z,95468.84
2023-04-15T07:01:10.267Z,95474.28
2023-04-15T07:03:38.248Z,95470.72
2023-04-15T07:06:07.238Z,95461.94
2023-04-15T07:08:36.794Z,95463.75
2023-04-15T07:11:10.027Z,95465.72
2023-04-15T07:13:38.167Z,95468.34
2023-04-15T07:16:07.506Z,95468.88
2023-04-15T07:18:37.311Z,95471.03
2023-04-15T07:21:07.068Z,95473.09
2023-04-15T07:23:36.518Z,95406.09
2023-04-15T07:26:05.017Z,95475.13
2023-04-15T07:28:33.330Z,95430.75
2023-04-15T07:31:01.828Z,95410.31
2023-04-15T07:33:33.358Z,95419.91
2023-04-15T07:36:04.106Z,95461.66
2023-04-15T07:38:36.987Z,95469.69
2023-04-15T07:41:06.585Z,95463.91
2023-04-15T07:43:36.246Z,95470.94
2023-04-15T07:46:11.626Z,95461.59
2023-04-15T07:48:44.374Z,95469.88
2023-04-15T07:51:16.436Z,95382.38
2023-04-15T07:53:50.620Z,95473.19
2023-04-15T07:56:19.519Z,95391.63
2023-04-15T07:58:54.294Z,95469.72
2023-04-15T08:01:24.464Z,95402.56
2023-04-15T08:03:52.748Z,95421.22
2023-04-15T08:06:23.505Z,95450.59
2023-04-15T08:08:54.671Z,95450.16
2023-04-15T08:11:23.551Z,95435.13
2023-04-15T08:13:55.723Z,95441.00
2023-04-15T08:16:25.270Z,95442.34
2023-04-15T08:18:55.263Z,95444.38
2023-04-15T08:21:25.234Z,95357.91
2023-04-15T08:23:55.559Z,95361.03
2023-04-15T08:26:24.141Z,95456.31
2023-04-15T08:28:52.692Z,95390.41
2023-04-15T08:31:22.781Z,95450.44
2023-04-15T08:33:52.564Z,95399.16
2023-04-15T08:36:23.665Z,95460.66
2023-04-15T08:38:54.308Z,95457.25
2023-04-15T08:41:30.888Z,95453.38
2023-04-15T08:44:02.008Z,95468.44
2023-04-15T08:46:37.934Z,95452.88
2023-04-15T08:49:07.508Z,95452.19
2023-04-15T08:51:36.556Z,95460.16
2023-04-15T08:54:08.866Z,95450.53
2023-04-15T08:56:44.384Z,95396.34
2023-04-15T08:59:12.931Z,95440.13
2023-04-15T09:01:42.206Z,95457.50
2023-04-15T09:04:15.451Z,95445.91
2023-04-15T09:06:44.108Z,95452.09
2023-04-15T09:09:14.661Z,95449.19
2023-04-15T09:11:45.780Z,95460.22
2023-04-15T09:14:23.288Z,95454.00
2023-04-15T09:16:58.701Z,95465.38
2023-04-15T09:19:29.714Z,95397.84
2023-04-15T09:21:59.566Z,95479.78
2023-04-15T09:24:36.783Z,95392.91
2023-04-15T09:27:07.211Z,95486.25
2023-04-15T09:29:35.774Z,95477.50
2023-04-15T09:32:18.069Z,95484.88
2023-04-15T09:34:46.136Z,95455.84
2023-04-15T09:37:29.076Z,95489.31
2023-04-15T09:40:01.247Z,95484.78
2023-04-15T09:42:30.908Z,95474.16
2023-04-15T09:45:12.707Z,95429.06
2023-04-15T09:47:42.741Z,95497.44
2023-04-15T09:50:15.685Z,95485.84
2023-04-15T09:52:44.565Z,95462.84
2023-04-15T09:55:13.107Z,95494.13
2023-04-15T09:57:44.641Z,95499.97
2023-04-15T10:00:14.021Z,95469.97
2023-04-15T10:02:43.300Z,95447.81
2023-04-15T10:05:17.144Z,95485.06
2023-04-15T10:07:46.141Z,95455.19
2023-04-15T10:10:14.303Z,95482.94
2023-04-15T10:12:46.478Z,95492.50
2023-04-15T10:15:18.541Z,95502.50
2023-04-15T10:17:50.249Z,95502.63
2023-04-15T10:20:19.393Z,95503.81
2023-04-15T10:22:49.826Z,95496.88
2023-04-15T10:25:18.744Z,95404.75
2023-04-15T10:27:49.000Z,95445.41
2023-04-15T10:30:17.554Z,95480.75
2023-04-15T10:32:46.436Z,95501.47
2023-04-15T10:35:17.815Z,95473.97
2023-04-15T10:37:46.324Z,95492.44
2023-04-15T10:40:31.643Z,95502.59
2023-04-15T10:43:03.154Z,95501.19
2023-04-15T10:45:34.905Z,95518.50
2023-04-15T10:48:06.852Z,95500.50
2023-04-15T10:50:36.656Z,95524.66
2023-04-15T10:53:09.180Z,95523.97
2023-04-15T10:55:39.467Z,95526.34
2023-04-15T10:58:15.110Z,95527.34
2023-04-15T11:00:53.577Z,95447.78
2023-04-15T11:03:37.848Z,95529.75
2023-04-15T11:06:08.620Z,95528.69
2023-04-15T11:08:59.688Z,95528.53
2023-04-15T11:12:01.267Z,95523.09
2023-04-15T11:14:30.938Z,95532.28
2023-04-15T11:17:01.066Z,95465.09
2023-04-15T11:19:39.399Z,95538.44
2023-04-15T11:22:10.953Z,95506.56
2023-04-15T11:24:49.198Z,95519.31
2023-04-15T11:27:25.303Z,95484.72
2023-04-15T11:29:59.103Z,95530.94
2023-04-15T11:32:29.820Z,95543.44
2023-04-15T11:34:58.597Z,95550.31
2023-04-15T11:37:33.826Z,95554.09
2023-04-15T11:40:04.534Z,95549.66
2023-04-15T11:42:46.519Z,95343.38
2023-04-15T11:45:18.722Z,95505.13
2023-04-15T11:47:46.713Z,95538.97
2023-04-15T11:50:19.580Z,95528.88
2023-04-15T11:53:08.335Z,95563.28
2023-04-15T11:55:44.695Z,95567.91
2023-04-15T11:58:16.668Z,95570.78
2023-04-15T12:00:49.935Z,95576.19
2023-04-15T12:03:24.636Z,95540.88
2023-04-15T12:06:21.849Z,95564.50
2023-04-15T12:09:05.506Z,95564.53
2023-04-15T12:11:43.128Z,95582.97
2023-04-15T12:14:24.032Z,95578.81
2023-04-15T12:17:05.404Z,95576.03
2023-04-15T12:19:38.288Z,95518.94
2023-04-15T12:22:07.968Z,95578.69
2023-04-15T12:24:41.278Z,95586.91
2023-04-15T12:27:10.389Z,95594.91
2023-04-15T12:29:40.146Z,95606.44
2023-04-15T12:32:15.627Z,95600.50
2023-04-15T12:34:47.186Z,95591.63
2023-04-15T12:37:15.077Z,95601.34
2023-04-15T12:39:51.857Z,95531.88
2023-04-15T12:42:23.088Z,95572.13
2023-04-15T12:45:00.045Z,95557.19
2023-04-15T12:47:34.541Z,95631.22
2023-04-15T12:50:04.189Z,95650.84
2023-04-15T12:52:34.619Z,95661.97
2023-04-15T12:55:02.852Z,95660.31
2023-04-15T12:57:31.098Z,95650.25
2023-04-15T12:59:59.357Z,95656.69
2023-04-15T13:02:31.310Z,95662.50
2023-04-15T13:05:04.693Z,95663.41
2023-04-15T13:07:35.531Z,95675.88
2023-04-15T13:10:03.477Z,95676.75
2023-04-15T13:12:31.419Z,95650.00
2023-04-15T13:14:59.587Z,95679.13
2023-04-15T13:17:40.292Z,95660.66
2023-04-15T13:20:09.139Z,95679.69
2023-04-15T13:22:37.617Z,95690.19
2023-04-15T13:25:06.313Z,95685.00
2023-04-15T13:27:35.998Z,95690.94
2023-04-15T13:30:09.490Z,95690.59
2023-04-15T13:32:43.102Z,95679.59
2023-04-15T13:35:11.280Z,95681.78
2023-04-15T13:37:42.234Z,95686.94
2023-04-15T13:40:11.161Z,95699.06
2023-04-15T13:42:55.572Z,95694.38
2023-04-15T13:45:23.853Z,95630.47
2023-04-15T13:47:53.584Z,95702.38
2023-04-15T13:50:25.709Z,95692.63
2023-04-15T13:52:53.716Z,95648.25
2023-04-15T13:55:35.419Z,95699.72
2023-04-15T13:58:06.477Z,95696.50
2023-04-15T14:00:36.474Z,95712.31
2023-04-15T14:03:09.477Z,95701.88
2023-04-15T14:05:42.567Z,95716.53
2023-04-15T14:08:13.428Z,95720.13
2023-04-15T14:10:44.400Z,95726.44
2023-04-15T14:13:12.880Z,95693.59
2023-04-15T14:15:43.479Z,95717.19
2023-04-15T14:18:18.062Z,95682.03
2023-04-15T14:20:45.828Z,95731.63
2023-04-15T14:23:14.238Z,95732.88
2023-04-15T14:25:44.144Z,95731.25
2023-04-15T14:28:14.911Z,95737.88
2023-04-15T14:30:43.193Z,95616.56
2023-04-15T14:33:17.964Z,95738.63
2023-04-15T14:35:48.619Z,95766.97
2023-04-15T14:38:16.650Z,95766.50
2023-04-15T14:40:45.235Z,95768.97
2023-04-15T14:43:19.306Z,95770.72
2023-04-15T14:45:49.837Z,95781.22
2023-04-15T14:48:19.523Z,95786.25
2023-04-15T14:50:51.919Z,95775.16
2023-04-15T14:53:20.486Z,95788.72
2023-04-15T14:55:53.571Z,95793.97
2023-04-15T14:58:23.369Z,95695.41
2023-04-15T15:00:52.136Z,95806.41
2023-04-15T15:03:24.053Z,95755.13
2023-04-15T15:05:58.962Z,95818.28
2023-04-15T15:08:30.415Z,95815.75
2023-04-15T15:11:05.736Z,95792.00
2023-04-15T15:13:35.278Z,95823.09
2023-04-15T15:16:04.025Z,95816.50
2023-04-15T15:18:34.228Z,95803.06
2023-04-15T15:21:02.619Z,95830.56
2023-04-15T15:23:30.733Z,95826.53
2023-04-15T15:26:03.717Z,95698.09
2023-04-15T15:28:43.122Z,95811.22
2023-04-15T15:34:01.293Z,95833.38
2023-04-15T15:36:32.459Z,95835.09
2023-04-15T15:39:00.464Z,95798.91
2023-04-15T15:41:28.999Z,95851.28
2023-04-15T15:43:58.395Z,95731.91
2023-04-15T15:46:28.953Z,95853.38
2023-04-15T15:49:00.236Z,95849.44
2023-04-15T15:51:29.034Z,95844.06
2023-04-15T15:53:57.293Z,95854.19
2023-04-15T15:56:32.087Z,95857.91
2023-04-15T15:59:00.070Z,95856.75
2023-04-15T16:01:31.854Z,95847.91
2023-04-15T16:04:02.144Z,95785.13
2023-04-15T16:06:35.403Z,95864.84
2023-04-15T16:09:03.860Z,95871.88
2023-04-15T16:11:34.189Z,95875.16
2023-04-15T16:14:03.120Z,95876.84
2023-04-15T16:16:31.375Z,95870.06
2023-04-15T16:19:02.818Z,95885.19
2023-04-15T16:21:34.696Z,95902.38
2023-04-15T16:24:05.977Z,95916.31
2023-04-15T16:26:34.506Z,95929.91
2023-04-15T16:29:03.542Z,95928.22
2023-04-15T16:31:32.231Z,95895.22
2023-04-15T16:34:05.698Z,95884.41
2023-04-15T16:36:40.755Z,95936.78
2023-04-15T16:39:10.172Z,95951.50
2023-04-15T16:41:49.166Z,95947.69
2023-04-15T16:44:19.458Z,95961.47
2023-04-15T16:46:47.549Z,95972.81
2023-04-15T16:49:15.928Z,95976.16
2023-04-15T16:51:48.584Z,95970.44
2023-04-15T16:54:24.570Z,95991.78
2023-04-15T16:56:52.578Z,96008.72
2023-04-15T16:59:24.109Z,95975.50
2023-04-15T17:01:52.440Z,96010.28
2023-04-15T17:04:21.201Z,96017.22
2023-04-15T17:06:57.532Z,96032.00
2023-04-15T17:09:25.534Z,95982.81
2023-04-15T17:11:53.791Z,96019.59
2023-04-15T17:14:23.830Z,96017.88
2023-04-15T17:16:55.793Z,96037.78
2023-04-15T17:19:26.552Z,96026.47
2023-04-15T17:22:01.432Z,96021.94
2023-04-15T17:24:36.047Z,96046.50
2023-04-15T17:27:12.301Z,96058.44
2023-04-15T17:29:46.036Z,96059.97
2023-04-15T17:32:14.965Z,96052.59
2023-04-15T17:34:49.446Z,96024.81
2023-04-15T17:37:21.408Z,96072.91
2023-04-15T17:39:49.354Z,96075.56
2023-04-15T17:42:17.809Z,95839.63
2023-04-15T17:44:47.148Z,96063.59
2023-04-15T17:47:15.433Z,96071.28
2023-04-15T17:49:45.503Z,96090.75
2023-04-15T17:52:15.132Z,96101.53
2023-04-15T17:54:52.633Z,96111.19
2023-04-15T17:57:21.977Z,96100.75
2023-04-15T17:59:57.100Z,96114.88
2023-04-15T18:02:28.194Z,96074.53
2023-04-15T18:04:56.813Z,96116.13
2023-04-15T18:07:25.046Z,96118.63
2023-04-15T18:09:56.168Z,96116.03
2023-04-15T18:12:28.266Z,96121.41
2023-04-15T18:15:00.675Z,96116.59
2023-04-15T18:17:36.220Z,96112.47
2023-04-15T18:20:04.584Z,96124.19
2023-04-15T18:22:32.706Z,96113.63
2023-04-15T18:25:04.662Z,96126.34
2023-04-15T18:27:38.575Z,96128.53
2023-04-15T18:30:08.140Z,96119.91
2023-04-15T18:32:36.365Z,96137.06
2023-04-15T18:35:07.124Z,96146.56
2023-04-15T18:37:38.461Z,96144.44
2023-04-15T18:40:15.131Z,96137.47
2023-04-15T18:42:45.207Z,96160.25
2023-04-15T18:45:15.594Z,96147.13
2023-04-15T18:47:44.075Z,96160.75
2023-04-15T18:50:13.916Z,96169.09
2023-04-15T18:52:45.144Z,96174.09
2023-04-15T18:55:16.520Z,96171.19
2023-04-15T18:57:48.106Z,96173.44
2023-04-15T19:00:22.761Z,96177.19
2023-04-15T19:02:51.204Z,96179.06
2023-04-15T19:05:23.683Z,96181.28
2023-04-15T19:07:54.094Z,96181.50
2023-04-15T19:10:35.969Z,96197.13
2023-04-15T19:13:04.662Z,96192.50
2023-04-15T19:15:36.418Z,96188.72
2023-04-15T19:18:13.676Z,96199.34
2023-04-15T19:20:45.918Z,96190.94
2023-04-15T19:23:13.965Z,96203.56
2023-04-15T19:25:43.863Z,96183.28
2023-04-15T19:28:14.985Z,96204.75
2023-04-15T19:30:45.469Z,96155.91
2023-04-15T19:33:16.591Z,96193.81
2023-04-15T19:35:45.917Z,96203.03
2023-04-15T19:38:15.579Z,96218.41
2023-04-15T19:40:50.022Z,96203.38
2023-04-15T19:43:19.563Z,96218.88
2023-04-15T19:45:49.702Z,96218.63
2023-04-15T19:48:18.204Z,96213.13
2023-04-15T19:50:46.287Z,96211.50
2023-04-15T19:53:17.106Z,96213.41
2023-04-15T19:55:48.772Z,96201.66
2023-04-15T19:58:18.841Z,96232.78
2023-04-15T20:00:46.756Z,96215.47
2023-04-15T20:03:17.945Z,96230.22
2023-04-15T20:05:48.406Z,96227.38
2023-04-15T20:08:17.785Z,96196.03
2023-04-15T20:10:48.916Z,96225.19
2023-04-15T20:13:18.929Z,96231.38
2023-04-15T20:15:49.809Z,96216.38
2023-04-15T20:18:20.986Z,96233.22
2023-04-15T20:20:55.286Z,96230.19
2023-04-15T20:23:30.163Z,96227.41
2023-04-15T20:26:00.934Z,96214.78
2023-04-15T20:28:33.364Z,96233.88
2023-04-15T20:31:02.669Z,96228.16
2023-04-15T20:33:34.167Z,96211.91
2023-04-15T20:36:02.606Z,96229.31
2023-04-15T20:38:35.694Z,96207.25
2023-04-15T20:41:11.701Z,96233.97
2023-04-15T20:43:41.795Z,96216.91
2023-04-15T20:46:21.570Z,96230.03
2023-04-15T20:48:50.140Z,96205.13
2023-04-15T20:51:23.788Z,96211.50
2023-04-15T20:53:52.104Z,96218.00
2023-04-15T20:56:24.395Z,96243.06
2023-04-15T20:58:59.246Z,96238.09
2023-04-15T21:01:30.505Z,96195.97
2023-04-15T21:03:58.773Z,96244.69
2023-04-15T21:06:30.147Z,96224.66
2023-04-15T21:08:59.263Z,96051.06
2023-04-15T21:14:12.786Z,96237.44
2023-04-15T21:16:49.120Z,96196.44
2023-04-15T21:19:19.419Z,96242.69
2023-04-15T21:21:53.030Z,96242.00
2023-04-15T21:24:21.300Z,96255.09
2023-04-15T21:26:50.571Z,96253.69
2023-04-15T21:29:22.371Z,96248.56
2023-04-15T21:31:50.535Z,96264.84
2023-04-15T21:34:24.884Z,96272.56
2023-04-15T21:36:55.846Z,96269.09
2023-04-15T21:39:25.818Z,96275.84
2023-04-15T21:41:53.736Z,96280.00
2023-04-15T21:44:28.790Z,96284.69
2023-04-15T21:47:05.826Z,96286.03
2023-04-15T21:49:33.912Z,96292.69
2023-04-15T21:52:04.638Z,96297.63
2023-04-15T21:54:38.501Z,96295.31
2023-04-15T21:57:12.559Z,96260.53
2023-04-15T21:59:45.597Z,96289.91
2023-04-15T22:02:21.413Z,96297.16
2023-04-15T22:04:52.467Z,96278.81
2023-04-15T22:07:20.820Z,96302.84
2023-04-15T22:09:48.996Z,96305.53
2023-04-15T22:12:20.075Z,96299.78
2023-04-15T22:14:53.408Z,96300.94
2023-04-15T22:17:21.929Z,96312.75
2023-04-15T22:19:53.617Z,96300.84
2023-04-15T22:22:21.998Z,96308.72
2023-04-15T22:25:00.536Z,96302.72
2023-04-15T22:27:31.274Z,96310.06
2023-04-15T22:30:01.415Z,96319.19
2023-04-15T22:32:32.220Z,96226.16
2023-04-15T22:35:06.268Z,96308.25
2023-04-15T22:37:34.363Z,96325.22
2023-04-15T22:40:05.020Z,96329.84
2023-04-15T22:42:33.371Z,96331.91
2023-04-15T22:45:03.523Z,96333.97
2023-04-15T22:47:31.904Z,96250.38
2023-04-15T22:50:00.167Z,96341.22
2023-04-15T22:52:31.450Z,96260.47
2023-04-15T22:55:00.291Z,96343.88
2023-04-15T22:57:29.662Z,96348.41
2023-04-15T22:59:58.003Z,96346.66
2023-04-15T23:02:29.216Z,96342.78
2023-04-15T23:04:58.117Z,96346.25
2023-04-15T23:07:37.472Z,96350.50
2023-04-15T23:10:16.272Z,96329.22
2023-04-15T23:12:49.164Z,96356.94
2023-04-15T23:18:03.508Z,96338.38
2023-04-15T23:20:34.550Z,96354.94
2023-04-15T23:23:16.049Z,96356.06
2023-04-15T23:25:49.395Z,96207.84
2023-04-15T23:28:17.663Z,96359.16
2023-04-15T23:30:45.486Z,96362.97
2023-04-15T23:33:21.405Z,96356.63
2023-04-15T23:35:50.660Z,96360.75
2023-04-15T23:38:24.497Z,96359.47
2023-04-15T23:40:58.418Z,96321.75
2023-04-15T23:43:27.029Z,96369.66
2023-04-15T23:45:55.430Z,96367.06
2023-04-15T23:48:32.289Z,96367.94
2023-04-15T23:51:02.207Z,96369.06
2023-04-15T23:53:39.181Z,96321.81
2023-04-15T23:56:07.730Z,96358.97
2023-04-15T23:58:37.453Z,96356.91
